NO-0062 weather

Trøgstad Airfield
Østfold, Norway

Public forecast

Using degrees Celsius for public forecast. Weather courtesy of forecast.io.

Closest aviation weather report (METAR) to Trøgstad Airfield

Closest report is Moss Airport, Rygge, 24.0 nm (44.5 km) SW. Retrieved 2020/07/07 02:20 UTC (0 seconds ago):

ENRY 070220Z AUTO 27008KT 9999NDV SCT068/// 11/04 Q1003

Closest aviation forecast (TAF) to Trøgstad Airfield

Closest forecast is Moss Airport, Rygge, 24.0 nm (44.5 km) SW. Retrieved 2020-07-07 00:00 UTC (2 hours ago):

TAF TAF ENRY 062300Z 0700/0724 28008KT 9999 FEW040 BKN080 TEMPO 0710/0713 21010KT TEMPO 0711/0724 SHRA SCT025CB BKN030 PROB40 TEMPO 0712/0717 TS